Time;durP1;ratioP1;P1;durP2;ratioP2;P2;SDS_P1;SDS_P2;PMS_P1;PMS_P2;Temp;Humidity;BMP_temperature;BMP_pressure;BME280_temperature;BME280_humidity;BME280_pressure;Samples;Min_cycle;Max_cycle;Signal;HPM_P1;HPM_P2
2022/06/14 00:03:27;;;;;;;1.38;0.90;;;24.90;53.60;;;;;;5109174;28;20095;-64
2022/06/14 00:05:57;;;;;;;0.60;0.60;;;24.90;53.60;;;;;;5106840;28;20128;-65
2022/06/14 00:08:25;;;;;;;2.45;1.10;;;24.90;53.60;;;;;;5106692;28;20535;-64
2022/06/14 00:10:55;;;;;;;0.77;0.77;;;24.90;53.70;;;;;;5102915;28;20135;-64
2022/06/14 00:13:23;;;;;;;1.02;1.02;;;24.90;53.70;;;;;;5105291;28;20043;-65
2022/06/14 00:15:51;;;;;;;0.80;0.80;;;24.90;53.70;;;;;;5107141;28;20101;-64
2022/06/14 00:18:19;;;;;;;0.82;0.82;;;24.90;53.70;;;;;;5106700;28;20044;-64
2022/06/14 00:20:47;;;;;;;0.73;0.73;;;24.90;53.70;;;;;;5107989;28;20056;-64
2022/06/14 00:23:16;;;;;;;0.63;0.60;;;24.90;53.80;;;;;;5106253;28;20089;-64
2022/06/14 00:25:47;;;;;;;0.95;0.95;;;24.90;53.70;;;;;;5105358;28;20147;-64
2022/06/14 00:28:16;;;;;;;0.60;0.60;;;24.90;53.80;;;;;;5107096;28;20354;-64
2022/06/14 00:30:46;;;;;;;0.60;0.60;;;24.90;53.80;;;;;;5107004;28;20376;-64
2022/06/14 00:33:13;;;;;;;0.80;0.80;;;24.80;53.70;;;;;;5106664;28;20531;-64
2022/06/14 00:35:41;;;;;;;0.70;0.70;;;24.90;53.80;;;;;;5107169;28;20522;-64
2022/06/14 00:38:10;;;;;;;1.02;1.02;;;24.80;53.70;;;;;;5107203;28;20138;-64
2022/06/14 00:40:38;;;;;;;1.65;0.90;;;24.80;53.80;;;;;;5105399;28;20100;-64
2022/06/14 00:43:14;;;;;;;0.63;0.63;;;24.80;53.70;;;;;;5102171;28;20066;-64
2022/06/14 00:46:07;;;;;;;0.93;0.90;;;24.80;53.80;;;;;;5104928;28;20094;-64
2022/06/14 00:48:34;;;;;;;0.70;0.70;;;24.80;53.80;;;;;;5105634;28;20404;-64
2022/06/14 00:51:12;;;;;;;0.70;0.70;;;24.80;53.80;;;;;;5107136;28;20134;-64
2022/06/14 00:54:08;;;;;;;1.02;0.57;;;24.80;53.80;;;;;;5106289;28;20556;-64
2022/06/14 00:56:58;;;;;;;1.08;0.88;;;24.80;53.80;;;;;;5105677;28;20139;-64
2022/06/14 00:59:28;;;;;;;;;;;24.80;53.80;;;;;;5106573;28;20492;-65
2022/06/14 01:02:06;;;;;;;0.90;0.90;;;24.80;53.80;;;;;;5106051;28;19943;-64
2022/06/14 01:04:35;;;;;;;1.75;0.70;;;24.80;53.90;;;;;;5106503;28;20062;-64
2022/06/14 01:07:18;;;;;;;0.52;0.52;;;24.80;53.90;;;;;;5105248;28;20107;-65
2022/06/14 01:10:05;;;;;;;0.68;0.68;;;24.80;53.90;;;;;;5106445;27;20130;-64
2022/06/14 01:12:35;;;;;;;0.60;0.60;;;24.80;53.90;;;;;;5103442;28;20123;-64
2022/06/14 01:15:19;;;;;;;0.80;0.80;;;24.70;53.80;;;;;;5104530;28;20492;-65
2022/06/14 01:17:50;;;;;;;0.60;0.60;;;24.80;53.90;;;;;;5106048;27;20092;-64
2022/06/14 01:20:20;;;;;;;0.63;0.60;;;24.70;53.80;;;;;;5104685;28;20396;-64
2022/06/14 01:22:48;;;;;;;1.00;0.70;;;24.80;53.90;;;;;;5105242;28;20502;-64
2022/06/14 01:25:16;;;;;;;1.05;0.80;;;24.70;53.80;;;;;;5105820;28;20299;-64
2022/06/14 01:27:45;;;;;;;0.50;0.50;;;24.70;53.90;;;;;;5106509;28;20373;-64
2022/06/14 01:30:20;;;;;;;0.55;0.55;;;24.70;53.80;;;;;;5104726;28;20071;-64
2022/06/14 01:33:03;;;;;;;0.65;0.65;;;24.70;53.90;;;;;;5105642;28;20482;-64
2022/06/14 01:35:35;;;;;;;1.95;0.52;;;24.80;53.90;;;;;;5106174;28;20075;-64
2022/06/14 01:38:06;;;;;;;0.60;0.60;;;24.70;53.90;;;;;;5105708;28;20117;-64
2022/06/14 01:41:13;;;;;;;0.80;0.80;;;24.80;53.90;;;;;;5104124;28;20266;-64
2022/06/14 01:44:19;;;;;;;0.70;0.70;;;24.70;53.90;;;;;;5102566;28;20449;-64
2022/06/14 01:47:07;;;;;;;0.65;0.65;;;24.70;53.90;;;;;;5105794;28;20515;-64
2022/06/14 01:53:33;;;;;;;0.52;0.52;;;24.70;53.90;;;;;;5106004;28;20121;-64
2022/06/14 01:56:13;;;;;;;0.80;0.80;;;24.70;53.90;;;;;;5106572;28;20531;-64
2022/06/14 01:59:06;;;;;;;0.60;0.60;;;24.70;53.90;;;;;;5107312;28;20083;-64
2022/06/14 02:01:55;;;;;;;0.80;0.75;;;24.70;53.90;;;;;;5106750;28;20106;-65
2022/06/14 02:04:50;;;;;;;0.73;0.73;;;24.70;54.00;;;;;;5107514;28;20484;-65
2022/06/14 02:07:44;;;;;;;0.77;0.77;;;24.70;54.00;;;;;;5106456;28;20608;-65
2022/06/14 02:10:37;;;;;;;0.63;0.63;;;24.70;54.00;;;;;;5106817;28;20105;-64
2022/06/14 02:13:15;;;;;;;0.65;0.65;;;24.70;54.00;;;;;;5105752;28;20473;-64
2022/06/14 02:15:55;;;;;;;0.90;0.80;;;24.70;54.00;;;;;;5100702;28;20047;-64
2022/06/14 02:18:49;;;;;;;0.60;0.60;;;24.70;54.00;;;;;;5106201;28;20162;-65
2022/06/14 02:21:26;;;;;;;0.50;0.50;;;24.70;54.00;;;;;;5106333;28;20082;-65
2022/06/14 02:24:05;;;;;;;0.43;0.43;;;24.60;54.00;;;;;;5106581;28;20123;-65
2022/06/14 02:26:37;;;;;;;0.43;0.43;;;24.70;54.00;;;;;;5106069;28;20052;-64
2022/06/14 02:29:21;;;;;;;1.80;0.80;;;24.60;54.00;;;;;;5107134;28;20339;-65
2022/06/14 02:32:13;;;;;;;0.60;0.60;;;24.70;54.10;;;;;;5111100;28;20047;-65
2022/06/14 02:34:49;;;;;;;0.47;0.47;;;24.60;54.00;;;;;;5110782;28;20092;-65
2022/06/14 02:37:46;;;;;;;0.50;0.50;;;24.60;54.00;;;;;;5110520;28;20079;-67
2022/06/14 02:40:27;;;;;;;0.45;0.45;;;24.70;54.10;;;;;;5110157;28;20047;-64
2022/06/14 02:43:26;;;;;;;0.68;0.68;;;24.60;54.00;;;;;;5109852;28;20386;-64
2022/06/14 02:46:03;;;;;;;0.52;0.52;;;24.60;54.00;;;;;;5109959;28;20268;-64
2022/06/14 02:48:40;;;;;;;1.05;0.43;;;24.60;54.00;;;;;;5105339;28;20484;-64
2022/06/14 02:51:14;;;;;;;0.60;0.60;;;24.60;54.00;;;;;;5108731;28;20055;-64
2022/06/14 02:54:07;;;;;;;0.55;0.55;;;24.60;54.00;;;;;;5110516;28;20074;-64
2022/06/14 02:56:52;;;;;;;0.40;0.40;;;24.70;54.10;;;;;;5109234;28;20094;-64
2022/06/14 02:59:29;;;;;;;0.50;0.50;;;24.60;54.00;;;;;;5110520;28;20512;-65
2022/06/14 03:02:10;;;;;;;0.60;0.60;;;24.60;54.00;;;;;;5109131;28;20380;-64
2022/06/14 03:05:02;;;;;;;0.50;0.50;;;24.60;54.00;;;;;;5108683;28;20039;-64
2022/06/14 03:07:39;;;;;;;0.65;0.65;;;24.60;54.00;;;;;;5108384;28;20048;-64
2022/06/14 03:10:07;;;;;;;0.60;0.60;;;24.60;54.00;;;;;;5108325;28;20047;-64
2022/06/14 03:12:47;;;;;;;0.50;0.50;;;24.70;54.00;;;;;;5108699;28;20553;-64
2022/06/14 03:15:34;;;;;;;;;;;24.60;53.90;;;;;;5109042;28;20052;-64
2022/06/14 03:18:27;;;;;;;0.80;0.80;;;24.60;53.90;;;;;;5107280;28;20293;-64
2022/06/14 03:21:08;;;;;;;0.40;0.40;;;24.60;53.80;;;;;;5108640;28;20254;-64
2022/06/14 03:24:10;;;;;;;0.60;0.60;;;24.70;53.90;;;;;;5108381;28;20078;-64
2022/06/14 03:27:05;;;;;;;0.63;0.40;;;24.70;53.80;;;;;;5107991;28;20478;-64
2022/06/14 03:29:50;;;;;;;0.73;0.73;;;24.70;53.70;;;;;;5104106;28;20079;-64
2022/06/14 03:32:33;;;;;;;0.50;0.50;;;24.70;53.70;;;;;;5095966;28;20138;-64
2022/06/14 03:35:14;;;;;;;0.50;0.50;;;24.70;54.10;;;;;;5098458;28;20475;-64
2022/06/14 03:37:41;;;;;;;0.60;0.60;;;24.70;53.50;;;;;;5087918;28;20309;-64
2022/06/14 03:40:13;;;;;;;0.70;0.70;;;24.70;53.40;;;;;;5089756;28;20048;-64
2022/06/14 03:42:42;;;;;;;0.57;0.57;;;24.70;53.40;;;;;;5089414;28;20453;-64
2022/06/14 03:45:13;;;;;;;0.60;0.60;;;24.70;53.30;;;;;;5087442;28;20052;-64
2022/06/14 03:47:40;;;;;;;1.15;0.52;;;24.80;53.30;;;;;;5095908;28;20119;-64
2022/06/14 03:50:13;;;;;;;0.40;0.40;;;24.80;53.20;;;;;;5085983;28;20550;-64
2022/06/14 03:52:59;;;;;;;0.60;0.60;;;24.80;53.10;;;;;;5087337;28;20584;-64
2022/06/14 03:55:59;;;;;;;0.90;0.90;;;24.80;53.00;;;;;;5103692;28;20108;-65
2022/06/14 03:58:54;;;;;;;0.50;0.50;;;24.80;52.90;;;;;;5107580;28;20096;-64
2022/06/14 04:01:32;;;;;;;0.68;0.68;;;24.90;52.90;;;;;;5108078;28;20495;-64
2022/06/14 04:04:36;;;;;;;0.60;0.60;;;24.90;52.80;;;;;;5107938;28;20046;-64
2022/06/14 04:07:27;;;;;;;0.75;0.75;;;24.90;52.60;;;;;;5107256;28;20135;-64
2022/06/14 04:09:59;;;;;;;;;;;24.90;52.60;;;;;;5108227;28;20047;-64
2022/06/14 04:12:47;;;;;;;0.73;0.60;;;24.90;52.50;;;;;;5107771;28;19919;-64
2022/06/14 04:15:33;;;;;;;0.63;0.63;;;25.00;52.40;;;;;;5107171;28;20063;-65
2022/06/14 04:18:38;;;;;;;0.77;0.77;;;25.00;52.30;;;;;;5107097;28;20138;-64
2022/06/14 04:21:43;;;;;;;0.63;0.60;;;25.00;52.20;;;;;;5106101;27;20513;-64
2022/06/14 04:24:44;;;;;;;0.88;0.88;;;25.00;52.10;;;;;;5105287;28;20047;-64
2022/06/14 04:27:26;;;;;;;0.70;0.70;;;25.00;51.90;;;;;;5105631;28;20494;-64
2022/06/14 04:30:09;;;;;;;1.27;0.80;;;25.10;51.90;;;;;;5105954;28;20043;-64
2022/06/14 04:32:54;;;;;;;2.00;1.00;;;25.10;51.70;;;;;;5088732;28;20081;-64
2022/06/14 04:35:52;;;;;;;1.83;0.82;;;25.10;51.60;;;;;;5106649;28;20127;-64
2022/06/14 04:38:40;;;;;;;1.83;1.02;;;25.10;51.50;;;;;;5106829;28;20093;-64
2022/06/14 04:41:23;;;;;;;3.20;0.70;;;25.20;51.40;;;;;;5107177;28;20093;-64
2022/06/14 04:44:06;;;;;;;1.05;1.00;;;25.20;51.30;;;;;;5097287;28;20075;-64
2022/06/14 04:46:49;;;;;;;2.00;0.60;;;25.30;51.30;;;;;;5099631;28;20047;-64
2022/06/14 04:49:51;;;;;;;2.15;0.85;;;25.30;51.10;;;;;;5097903;28;20557;-64
2022/06/14 04:52:26;;;;;;;0.57;0.50;;;25.30;51.00;;;;;;5090872;28;20071;-64
2022/06/14 04:55:04;;;;;;;0.70;0.70;;;25.40;50.90;;;;;;5101122;28;20097;-64
2022/06/14 04:57:44;;;;;;;1.77;0.50;;;25.40;50.80;;;;;;5106575;28;20051;-64
2022/06/14 05:00:20;;;;;;;2.95;0.77;;;25.40;50.70;;;;;;5106826;28;20079;-64
2022/06/14 05:03:10;;;;;;;0.90;0.90;;;25.40;50.60;;;;;;5106360;28;20049;-64
2022/06/14 05:06:04;;;;;;;1.30;0.80;;;25.50;50.50;;;;;;5104427;28;20044;-63
2022/06/14 05:08:54;;;;;;;1.35;0.75;;;25.50;50.40;;;;;;5092154;28;20040;-63
2022/06/14 05:11:39;;;;;;;1.48;1.33;;;25.50;50.30;;;;;;5091779;28;20631;-64
2022/06/14 05:14:17;;;;;;;1.42;0.75;;;25.50;50.30;;;;;;5096564;27;20199;-64
2022/06/14 05:16:56;;;;;;;0.77;0.77;;;25.40;50.40;;;;;;5096664;27;20127;-64
2022/06/14 05:19:34;;;;;;;0.80;0.80;;;25.20;50.60;;;;;;5088372;27;20450;-61
2022/06/14 05:22:21;;;;;;;1.92;1.17;;;25.00;50.90;;;;;;5090023;28;20551;-60
2022/06/14 05:24:49;;;;;;;3.58;1.35;;;24.70;49.80;;;;;;5086717;28;20380;-61
2022/06/14 05:27:50;;;;;;;2.53;1.55;;;24.20;49.70;;;;;;5091102;28;20052;-62
2022/06/14 05:30:49;;;;;;;1.90;1.25;;;23.60;50.20;;;;;;5089846;27;20461;-62
2022/06/14 05:33:46;;;;;;;1.35;1.00;;;23.10;51.00;;;;;;5092692;28;20093;-60
2022/06/14 05:36:19;;;;;;;2.55;1.35;;;22.60;50.70;;;;;;5090872;28;20072;-60
2022/06/14 05:39:00;;;;;;;1.50;1.30;;;22.20;51.00;;;;;;5085999;28;20472;-62
2022/06/14 05:41:32;;;;;;;;;;;21.80;51.00;;;;;;5090460;28;20055;-62
2022/06/14 05:44:24;;;;;;;0.98;0.90;;;21.50;51.60;;;;;;5095503;28;19932;-61
2022/06/14 05:46:57;;;;;;;2.58;1.52;;;21.20;51.90;;;;;;5090216;28;20246;-63
2022/06/14 05:49:41;;;;;;;2.53;1.45;;;20.90;51.90;;;;;;5089473;28;20063;-64
2022/06/14 05:52:32;;;;;;;1.83;1.30;;;20.70;53.90;;;;;;5083908;28;20050;-63
2022/06/14 05:55:10;;;;;;;6.10;2.00;;;20.40;54.60;;;;;;5093004;28;20075;-63
2022/06/14 05:57:47;;;;;;;5.53;1.85;;;20.20;53.60;;;;;;5082191;28;20523;-64
2022/06/14 06:00:39;;;;;;;5.40;2.03;;;20.00;54.00;;;;;;5092234;28;20087;-63
2022/06/14 06:03:20;;;;;;;1.85;1.75;;;19.90;55.10;;;;;;5087949;28;20121;-63
2022/06/14 06:05:50;;;;;;;;;;;19.70;54.80;;;;;;5089848;28;20044;-65
2022/06/14 06:08:43;;;;;;;3.47;1.90;;;19.60;55.00;;;;;;5085311;28;20013;-64
2022/06/14 06:11:24;;;;;;;2.00;1.48;;;19.50;56.10;;;;;;5086772;28;20063;-65
2022/06/14 06:14:13;;;;;;;4.10;2.70;;;19.40;55.90;;;;;;5085010;28;20068;-65
2022/06/14 06:19:42;;;;;;;3.63;2.13;;;19.30;56.70;;;;;;5087293;28;20054;-64
2022/06/14 06:22:15;;;;;;;2.60;1.85;;;19.20;55.90;;;;;;5085809;28;20400;-64
2022/06/14 06:24:55;;;;;;;4.22;2.05;;;19.20;55.80;;;;;;5086345;28;20495;-64
2022/06/14 06:27:30;;;;;;;3.77;2.27;;;19.20;57.00;;;;;;5085406;28;20151;-64
2022/06/14 06:30:08;;;;;;;1.90;1.80;;;19.20;57.00;;;;;;5082821;28;20089;-64
2022/06/14 06:32:35;;;;;;;4.40;1.60;;;19.20;56.20;;;;;;5090401;28;20501;-65
2022/06/14 06:35:04;;;;;;;3.65;1.88;;;19.20;56.60;;;;;;5088388;28;20393;-69
2022/06/14 06:37:54;;;;;;;4.43;1.73;;;19.20;56.50;;;;;;5088490;28;20485;-64
2022/06/14 06:40:23;;;;;;;5.72;1.83;;;19.10;56.30;;;;;;5089563;28;20416;-65
2022/06/14 06:43:00;;;;;;;3.92;1.92;;;19.10;56.60;;;;;;5088763;28;20047;-65
2022/06/14 06:45:35;;;;;;;2.25;1.77;;;19.10;56.50;;;;;;5084121;28;20916;-65
2022/06/14 06:48:24;;;;;;;2.83;2.00;;;19.00;56.80;;;;;;5091840;28;20051;-65
2022/06/14 06:50:57;;;;;;;4.13;1.60;;;18.90;57.60;;;;;;5084611;28;20123;-65
2022/06/14 06:53:40;;;;;;;1.88;1.77;;;18.90;58.10;;;;;;5084204;28;20051;-66
2022/06/14 06:56:30;;;;;;;3.15;1.60;;;18.80;57.60;;;;;;5087573;28;20048;-66
2022/06/14 06:59:02;;;;;;;2.83;1.70;;;18.80;57.30;;;;;;5083818;28;20242;-66
2022/06/14 07:01:38;;;;;;;2.35;2.10;;;18.80;57.40;;;;;;5086923;28;20040;-64
2022/06/14 07:04:19;;;;;;;2.08;1.98;;;18.70;56.90;;;;;;5087705;28;20135;-65
2022/06/14 07:06:56;;;;;;;2.42;1.58;;;18.70;57.10;;;;;;5094302;28;20595;-64
2022/06/14 07:09:45;;;;;;;11.85;2.53;;;18.70;56.90;;;;;;5084684;28;20089;-67
2022/06/14 07:12:25;;;;;;;3.28;1.90;;;18.60;57.30;;;;;;5096316;28;20093;-67
2022/06/14 07:15:01;;;;;;;5.63;1.80;;;18.50;57.50;;;;;;5085771;28;20130;-66
2022/06/14 07:17:46;;;;;;;4.53;2.05;;;18.50;57.70;;;;;;5090979;28;20143;-65
2022/06/14 07:20:38;;;;;;;2.33;2.15;;;18.50;57.90;;;;;;5071347;28;20075;-64
2022/06/14 07:23:29;;;;;;;1.83;1.70;;;18.50;58.40;;;;;;5095813;27;20044;-67
2022/06/14 07:25:59;;;;;;;;;;;18.60;58.30;;;;;;5089798;27;20052;-63
2022/06/14 07:29:03;;;;;;;1.70;1.60;;;18.60;58.30;;;;;;5093730;28;20530;-67
2022/06/14 07:31:57;;;;;;;1.83;1.63;;;18.70;58.10;;;;;;5089584;27;20055;-66
2022/06/14 07:34:26;;;;;;;1.70;1.60;;;18.70;58.30;;;;;;5094779;28;20093;-66
2022/06/14 07:37:18;;;;;;;2.58;1.15;;;18.80;58.20;;;;;;5091280;28;20048;-65
2022/06/14 07:40:06;;;;;;;2.42;1.60;;;18.80;57.90;;;;;;5088144;28;20047;-66
2022/06/14 07:42:57;;;;;;;2.05;1.50;;;18.90;57.70;;;;;;5103719;27;20043;-66
2022/06/14 07:45:37;;;;;;;1.67;1.38;;;18.90;57.80;;;;;;5098997;28;20090;-66
2022/06/14 07:48:15;;;;;;;1.83;1.20;;;18.90;57.40;;;;;;5089742;28;20052;-66
2022/06/14 07:50:51;;;;;;;1.88;1.27;;;18.90;57.30;;;;;;5087165;28;20039;-65
2022/06/14 07:53:47;;;;;;;3.28;1.15;;;18.90;57.60;;;;;;5089942;28;20048;-65
2022/06/14 07:56:20;;;;;;;2.92;1.13;;;19.00;57.70;;;;;;5088259;28;20048;-66
2022/06/14 07:58:54;;;;;;;2.22;1.90;;;18.90;57.70;;;;;;5090119;28;20097;-64
2022/06/14 08:01:41;;;;;;;1.90;1.65;;;19.00;57.80;;;;;;5084982;28;20212;-66
2022/06/14 08:04:32;;;;;;;2.38;1.20;;;19.00;57.70;;;;;;5088718;28;20048;-67
2022/06/14 08:07:06;;;;;;;4.07;1.30;;;19.10;57.80;;;;;;5090604;28;20073;-64
2022/06/14 08:09:42;;;;;;;2.80;1.30;;;19.10;57.70;;;;;;5093478;28;20069;-65
2022/06/14 08:12:17;;;;;;;4.43;1.45;;;19.10;57.80;;;;;;5099127;28;20132;-64
2022/06/14 08:14:51;;;;;;;3.22;1.83;;;19.10;58.50;;;;;;5090574;28;20109;-62
2022/06/14 08:17:46;;;;;;;1.60;1.30;;;19.20;58.40;;;;;;5088563;28;20051;-67
2022/06/14 08:20:28;;;;;;;3.22;1.23;;;19.20;57.90;;;;;;5090434;28;20047;-67
2022/06/14 08:23:02;;;;;;;7.85;1.67;;;19.20;57.80;;;;;;5090533;28;20377;-66
2022/06/14 08:25:37;;;;;;;3.83;1.60;;;19.20;57.60;;;;;;5067176;28;20051;-65
2022/06/14 08:28:15;;;;;;;3.00;1.60;;;19.20;57.80;;;;;;5086904;28;20101;-64
2022/06/14 08:30:51;;;;;;;1.25;1.15;;;19.20;58.00;;;;;;5091891;28;20485;-66
2022/06/14 08:33:28;;;;;;;2.78;1.38;;;19.20;57.90;;;;;;5087890;28;20507;-63
2022/06/14 08:36:00;;;;;;;1.88;1.20;;;19.20;58.00;;;;;;5081101;28;20036;-64
2022/06/14 08:38:50;;;;;;;1.38;1.27;;;19.20;58.10;;;;;;5086360;28;20236;-64
2022/06/14 08:41:53;;;;;;;2.38;1.73;;;19.20;58.20;;;;;;5088767;28;20147;-64
2022/06/14 08:44:25;;;;;;;2.60;1.67;;;19.20;58.30;;;;;;5080352;27;20079;-62
2022/06/14 08:47:23;;;;;;;1.45;1.33;;;19.20;58.50;;;;;;5089852;27;20833;-66
2022/06/14 08:50:26;;;;;;;3.53;1.70;;;19.20;58.40;;;;;;5089727;27;20547;-66
2022/06/14 08:53:33;;;;;;;2.17;1.77;;;19.20;58.60;;;;;;5086434;28;20043;-65
2022/06/14 08:56:28;;;;;;;1.60;1.50;;;19.20;58.50;;;;;;5085623;28;20051;-64
2022/06/14 08:59:25;;;;;;;1.27;1.17;;;19.20;58.60;;;;;;5085293;28;20400;-64
2022/06/14 09:02:27;;;;;;;2.13;1.58;;;19.20;58.70;;;;;;5082166;28;20149;-63
2022/06/14 09:05:27;;;;;;;1.77;1.63;;;19.20;58.50;;;;;;5087960;28;20075;-63
2022/06/14 09:08:35;;;;;;;1.38;1.27;;;19.20;58.30;;;;;;5084898;28;20625;-63
2022/06/14 09:11:42;;;;;;;2.08;1.40;;;19.20;58.40;;;;;;5104039;27;20127;-62
2022/06/14 09:14:44;;;;;;;2.47;1.40;;;19.20;58.30;;;;;;5089029;28;20118;-62
2022/06/14 09:17:46;;;;;;;5.93;1.55;;;19.20;58.10;;;;;;5086656;28;20118;-62
2022/06/14 09:20:42;;;;;;;2.00;1.23;;;19.20;58.00;;;;;;5090836;28;20052;-63
2022/06/14 09:23:17;;;;;;;1.63;1.52;;;19.20;58.10;;;;;;5088843;28;20044;-62
2022/06/14 09:26:15;;;;;;;3.05;2.50;;;19.20;58.20;;;;;;5098394;28;20055;-63
2022/06/14 09:29:22;;;;;;;2.78;1.58;;;19.20;58.20;;;;;;5092138;28;20128;-64
2022/06/14 09:32:25;;;;;;;1.58;1.20;;;19.20;57.90;;;;;;5088519;28;20465;-63
2022/06/14 09:35:29;;;;;;;2.00;1.38;;;19.20;57.70;;;;;;5086014;28;20127;-65
2022/06/14 09:38:20;;;;;;;2.88;1.27;;;19.20;57.60;;;;;;5083866;28;20071;-62
2022/06/14 09:41:23;;;;;;;1.80;1.15;;;19.20;57.60;;;;;;5091452;28;20410;-64
2022/06/14 09:44:33;;;;;;;2.60;1.35;;;19.20;57.40;;;;;;5088353;28;20404;-64
2022/06/14 09:47:30;;;;;;;1.60;1.40;;;19.20;57.20;;;;;;5093984;28;20102;-63
2022/06/14 09:50:34;;;;;;;1.45;1.35;;;19.20;57.30;;;;;;5097589;27;20394;-65
2022/06/14 09:53:33;;;;;;;1.65;1.55;;;19.20;57.40;;;;;;5089005;28;20079;-63
2022/06/14 09:56:27;;;;;;;1.23;1.13;;;19.20;57.50;;;;;;5094786;27;20063;-64
2022/06/14 09:59:27;;;;;;;3.38;1.63;;;19.20;57.20;;;;;;5093728;28;20040;-64
2022/06/14 10:02:34;;;;;;;1.35;1.27;;;19.20;56.90;;;;;;5083229;28;20082;-64
2022/06/14 10:05:42;;;;;;;1.13;1.13;;;19.20;56.80;;;;;;5089426;28;20043;-63
2022/06/14 10:08:48;;;;;;;3.15;1.30;;;19.20;56.60;;;;;;5088522;28;20074;-64
2022/06/14 10:11:36;;;;;;;1.80;1.65;;;19.10;56.30;;;;;;5091425;28;20563;-63
2022/06/14 10:14:36;;;;;;;1.33;1.23;;;19.00;56.20;;;;;;5087826;28;20048;-63
2022/06/14 10:17:36;;;;;;;1.88;1.67;;;19.00;56.70;;;;;;5096624;28;20102;-62
2022/06/14 10:20:33;;;;;;;2.35;1.20;;;18.90;56.80;;;;;;5087533;28;20059;-61
2022/06/14 10:23:19;;;;;;;2.22;1.42;;;18.90;57.00;;;;;;5087113;28;20047;-61
2022/06/14 10:29:39;;;;;;;3.95;1.13;;;18.90;56.40;;;;;;5103812;28;20130;-63
2022/06/14 10:32:41;;;;;;;1.80;1.38;;;18.90;56.60;;;;;;5096410;28;20051;-62
2022/06/14 10:35:41;;;;;;;2.05;1.67;;;18.80;56.30;;;;;;5089832;28;20044;-62
2022/06/14 10:38:46;;;;;;;1.55;1.23;;;18.80;56.30;;;;;;5089291;28;20058;-63
2022/06/14 10:41:32;;;;;;;3.47;1.42;;;18.70;56.50;;;;;;5082357;28;20094;-62
2022/06/14 10:44:30;;;;;;;2.28;1.40;;;18.70;56.60;;;;;;5090808;28;20135;-61
2022/06/14 10:47:28;;;;;;;5.53;1.55;;;18.70;56.60;;;;;;5087584;28;20044;-61
2022/06/14 10:50:15;;;;;;;1.73;1.20;;;18.70;56.70;;;;;;5092967;28;20101;-61
2022/06/14 10:53:23;;;;;;;1.60;1.27;;;18.60;56.60;;;;;;5091107;28;20047;-61
2022/06/14 10:56:18;;;;;;;5.00;1.98;;;18.60;57.40;;;;;;5096087;27;20040;-61
2022/06/14 10:59:28;;;;;;;1.77;1.33;;;18.70;57.60;;;;;;5093516;28;20062;-62
2022/06/14 11:02:21;;;;;;;1.23;1.15;;;18.70;57.20;;;;;;5094812;27;20044;-62
2022/06/14 11:05:04;;;;;;;1.90;1.30;;;18.80;57.10;;;;;;5095005;28;20062;-63
2022/06/14 11:08:04;;;;;;;2.38;1.25;;;18.80;57.30;;;;;;5092511;28;20101;-62
2022/06/14 11:11:12;;;;;;;2.53;1.43;;;18.80;57.00;;;;;;5093168;28;20476;-60
2022/06/14 11:14:12;;;;;;;1.30;1.20;;;18.80;56.80;;;;;;5086778;28;20058;-60
2022/06/14 11:17:08;;;;;;;1.42;1.33;;;18.70;56.60;;;;;;5094474;28;20043;-61
2022/06/14 11:20:03;;;;;;;2.58;1.75;;;18.70;56.70;;;;;;5090471;28;20040;-61
2022/06/14 11:22:40;;;;;;;3.88;1.40;;;18.80;56.50;;;;;;5088123;28;20582;-61
2022/06/14 11:25:46;;;;;;;1.90;1.13;;;18.70;56.40;;;;;;5089168;28;20397;-62
2022/06/14 11:28:48;;;;;;;2.97;1.17;;;18.70;56.40;;;;;;5093280;28;20090;-61
2022/06/14 11:31:50;;;;;;;2.13;1.58;;;18.80;56.30;;;;;;5085954;28;20185;-62
2022/06/14 11:37:42;;;;;;;4.32;1.20;;;18.80;56.20;;;;;;5090933;28;20043;-62
2022/06/14 11:40:30;;;;;;;3.92;1.48;;;18.80;56.20;;;;;;5088644;28;20682;-63
2022/06/14 11:43:32;;;;;;;1.55;1.45;;;18.80;56.60;;;;;;5086304;27;20188;-63
2022/06/14 11:46:40;;;;;;;1.48;1.38;;;18.80;56.60;;;;;;5090144;28;20131;-63
2022/06/14 11:49:27;;;;;;;4.70;1.70;;;18.80;56.40;;;;;;5088389;28;20120;-65
2022/06/14 11:52:34;;;;;;;2.17;1.60;;;18.80;56.60;;;;;;5093725;28;20068;-64
2022/06/14 11:55:29;;;;;;;2.42;1.60;;;18.80;56.60;;;;;;5092142;28;20044;-63
2022/06/14 11:58:32;;;;;;;4.40;1.70;;;18.90;56.80;;;;;;5092739;28;20142;-63
2022/06/14 12:01:25;;;;;;;1.50;1.30;;;18.90;57.00;;;;;;5089477;28;20070;-63
2022/06/14 12:04:23;;;;;;;1.52;1.38;;;19.00;56.70;;;;;;5088298;28;20508;-66
2022/06/14 12:07:07;;;;;;;1.52;1.30;;;19.00;57.40;;;;;;5093607;28;20098;-63
2022/06/14 12:09:52;;;;;;;2.17;1.00;;;19.00;56.80;;;;;;5088480;28;20048;-63
2022/06/14 12:12:32;;;;;;;1.23;1.10;;;19.00;56.70;;;;;;5088876;28;20479;-61
2022/06/14 12:15:03;;;;;;;3.40;1.63;;;19.10;56.70;;;;;;5089549;27;20317;-62
2022/06/14 12:17:49;;;;;;;1.10;1.10;;;19.00;56.80;;;;;;5087555;28;20082;-63
2022/06/14 12:20:20;;;;;;;2.72;1.65;;;19.10;56.50;;;;;;5089603;28;20043;-63
2022/06/14 12:23:15;;;;;;;3.05;1.83;;;19.10;56.40;;;;;;5098009;27;20056;-64
2022/06/14 12:29:00;;;;;;;1.13;1.10;;;19.10;56.60;;;;;;5088605;28;20112;-62
2022/06/14 12:31:49;;;;;;;2.15;1.60;;;19.10;57.00;;;;;;5094115;28;20047;-63
2022/06/14 12:34:56;;;;;;;1.65;1.48;;;19.10;56.70;;;;;;5094476;28;20048;-62
2022/06/14 12:37:48;;;;;;;2.83;1.50;;;19.10;56.50;;;;;;5092334;28;20051;-63
2022/06/14 12:40:44;;;;;;;1.70;1.60;;;19.10;56.40;;;;;;5095298;28;20051;-62
2022/06/14 12:43:27;;;;;;;2.78;1.17;;;19.20;56.50;;;;;;5089817;28;20071;-62
2022/06/14 12:46:00;;;;;;;1.50;1.40;;;19.20;56.30;;;;;;5090540;28;20047;-62
2022/06/14 12:48:54;;;;;;;1.20;1.10;;;19.20;56.30;;;;;;5089154;27;20040;-62
2022/06/14 12:51:31;;;;;;;4.15;1.55;;;19.20;56.10;;;;;;5092182;28;20052;-62
2022/06/14 12:54:39;;;;;;;3.33;1.42;;;19.30;56.00;;;;;;5088652;28;20070;-63
2022/06/14 12:57:20;;;;;;;1.15;1.13;;;19.30;55.80;;;;;;5089781;28;20048;-62
2022/06/14 13:00:02;;;;;;;2.17;1.33;;;19.30;55.70;;;;;;5087871;28;20061;-62
2022/06/14 13:02:53;;;;;;;1.40;1.30;;;19.30;55.80;;;;;;5087602;27;20434;-62
2022/06/14 13:05:25;;;;;;;1.98;1.33;;;19.30;55.70;;;;;;5089507;28;20063;-62
2022/06/14 13:08:19;;;;;;;2.88;1.33;;;19.30;55.70;;;;;;5086948;28;20147;-61
2022/06/14 13:11:06;;;;;;;1.65;1.55;;;19.40;55.70;;;;;;5090404;28;20048;-62
2022/06/14 13:14:11;;;;;;;1.60;1.38;;;19.40;55.70;;;;;;5090462;28;20105;-62
2022/06/14 13:17:07;;;;;;;2.30;1.67;;;19.40;55.70;;;;;;5082613;28;20068;-62
2022/06/14 13:19:54;;;;;;;1.33;1.23;;;19.40;55.70;;;;;;5082496;28;20063;-62
2022/06/14 13:23:01;;;;;;;2.00;1.45;;;19.50;55.70;;;;;;5088798;28;20047;-63
2022/06/14 13:26:07;;;;;;;1.38;1.17;;;19.50;55.70;;;;;;5093141;28;20090;-64
2022/06/14 13:29:14;;;;;;;1.98;1.55;;;19.50;55.70;;;;;;5088908;28;20681;-63
2022/06/14 13:32:21;;;;;;;1.30;1.20;;;19.60;55.80;;;;;;5086804;28;20221;-61
2022/06/14 13:35:28;;;;;;;1.42;1.33;;;19.50;55.60;;;;;;5087728;27;20499;-63
2022/06/14 13:38:03;;;;;;;2.28;1.52;;;19.60;55.70;;;;;;5077740;28;20059;-63
2022/06/14 13:41:04;;;;;;;4.95;1.95;;;19.60;55.80;;;;;;5092476;28;20128;-62
2022/06/14 13:43:46;;;;;;;2.65;1.42;;;19.60;55.70;;;;;;5084314;28;20044;-63
2022/06/14 13:46:34;;;;;;;1.58;1.27;;;19.60;55.70;;;;;;5089674;28;20361;-63
2022/06/14 13:49:27;;;;;;;1.30;1.23;;;19.70;55.70;;;;;;5089173;28;20086;-63
2022/06/14 13:52:01;;;;;;;1.15;1.10;;;19.70;55.70;;;;;;5090890;28;20109;-65
2022/06/14 13:54:56;;;;;;;2.20;1.40;;;19.70;55.80;;;;;;5084987;28;20277;-65
2022/06/14 13:57:36;;;;;;;1.58;1.13;;;19.80;55.60;;;;;;5084209;28;20054;-65
2022/06/14 14:00:23;;;;;;;1.75;1.30;;;19.80;55.60;;;;;;5089227;28;20043;-64
2022/06/14 14:03:24;;;;;;;1.65;1.40;;;19.80;55.60;;;;;;5086423;28;20393;-63
2022/06/14 14:06:07;;;;;;;1.58;1.35;;;19.80;55.60;;;;;;5088766;28;20093;-62
2022/06/14 14:09:01;;;;;;;2.53;1.50;;;19.80;55.80;;;;;;5093136;28;20044;-65
2022/06/14 14:12:04;;;;;;;1.77;1.30;;;19.90;56.00;;;;;;5093208;28;20097;-65
2022/06/14 14:15:04;;;;;;;2.78;1.27;;;19.80;56.00;;;;;;5086284;28;20043;-64
2022/06/14 14:18:07;;;;;;;2.58;1.40;;;19.80;55.80;;;;;;5088658;28;20439;-63
2022/06/14 14:20:58;;;;;;;1.65;1.20;;;19.90;56.00;;;;;;5081769;28;20509;-62
2022/06/14 14:23:40;;;;;;;1.00;1.00;;;19.90;55.80;;;;;;5089527;28;20512;-62
2022/06/14 14:26:39;;;;;;;1.58;1.48;;;19.80;55.70;;;;;;5074380;28;20040;-63
2022/06/14 14:29:30;;;;;;;5.40;1.10;;;19.90;55.70;;;;;;5090750;28;20040;-64
2022/06/14 14:32:07;;;;;;;1.77;1.40;;;19.90;55.70;;;;;;5085262;28;20473;-63
2022/06/14 14:34:44;;;;;;;3.63;1.20;;;19.80;55.70;;;;;;5096216;28;20040;-63
2022/06/14 14:37:34;;;;;;;1.40;1.30;;;19.80;55.60;;;;;;5104402;28;20515;-63
2022/06/14 14:40:26;;;;;;;1.85;1.02;;;19.80;55.50;;;;;;5087524;28;20048;-62
2022/06/14 14:43:07;;;;;;;7.55;1.45;;;19.80;55.40;;;;;;5088006;28;20491;-61
2022/06/14 14:45:52;;;;;;;3.33;1.55;;;19.80;55.40;;;;;;5088832;28;20074;-63